Time;durP1;ratioP1;P1;durP2;ratioP2;P2;SDS_P1;SDS_P2;PMS_P1;PMS_P2;Temp;Humidity;BMP_temperature;BMP_pressure;BME280_temperature;BME280_humidity;BME280_pressure;Samples;Min_cycle;Max_cycle;Signal;HPM_P1;HPM_P2
2021/03/15 00:01:09;;;;;;;49.90;31.00;;;;;;;4.56;90.84;98121.05;1813019;78;21167;-55
2021/03/15 00:03:38;;;;;;;50.48;32.05;;;;;;;4.63;90.66;98122.45;1812885;79;21119;-60
2021/03/15 00:06:06;;;;;;;51.58;31.00;;;;;;;4.65;90.38;98123.34;1813006;79;21568;-61
2021/03/15 00:08:34;;;;;;;52.70;32.50;;;;;;;4.65;90.26;98127.18;1812961;79;21113;-59
2021/03/15 00:11:02;;;;;;;52.88;32.08;;;;;;;4.64;90.25;98128.02;1813017;79;21139;-54
2021/03/15 00:13:30;;;;;;;47.98;29.25;;;;;;;4.64;90.14;98120.36;1812958;78;21554;-57
2021/03/15 00:16:00;;;;;;;50.23;30.92;;;;;;;4.63;89.97;98119.89;1813012;78;21542;-58
2021/03/15 00:18:30;;;;;;;53.10;30.88;;;;;;;4.61;90.03;98119.88;1812839;78;21107;-60
2021/03/15 00:20:58;;;;;;;54.40;31.65;;;;;;;4.58;89.97;98126.21;1813020;79;21135;-57
2021/03/15 00:23:26;;;;;;;52.48;31.07;;;;;;;4.57;90.06;98126.59;1812876;79;21538;-60
2021/03/15 00:25:53;;;;;;;50.28;31.07;;;;;;;4.57;90.05;98125.74;1812849;78;21107;-57
2021/03/15 00:28:21;;;;;;;61.83;33.38;;;;;;;4.61;90.10;98131.80;1813033;78;21288;-64
2021/03/15 00:30:49;;;;;;;54.03;33.00;;;;;;;4.64;89.94;98128.02;1812862;79;21143;-64
2021/03/15 00:33:16;;;;;;;59.30;34.50;;;;;;;4.65;89.74;98131.02;1812933;78;21143;-63
2021/03/15 00:35:44;;;;;;;57.08;33.98;;;;;;;4.62;89.83;98134.79;1812882;78;21108;-65
2021/03/15 00:38:12;;;;;;;58.70;36.05;;;;;;;4.61;89.80;98130.52;1813035;79;21570;-62
2021/03/15 00:40:40;;;;;;;58.58;34.98;;;;;;;4.64;89.77;98125.47;1812974;79;21147;-63
2021/03/15 00:43:08;;;;;;;57.25;34.63;;;;;;;4.67;89.77;98129.36;1813003;78;21601;-63
2021/03/15 00:45:35;;;;;;;69.07;38.17;;;;;;;4.70;89.75;98139.64;1812872;78;21293;-60
2021/03/15 00:48:04;;;;;;;56.48;36.50;;;;;;;4.78;89.60;98139.38;1812838;78;21135;-58
2021/03/15 00:50:41;;;;;;;62.30;37.40;;;;;;;4.85;89.28;98138.67;1812834;78;21100;-62
2021/03/15 00:53:11;;;;;;;58.30;36.20;;;;;;;4.86;89.11;98131.47;1812821;78;21120;-58
2021/03/15 00:55:40;;;;;;;58.45;36.28;;;;;;;4.90;89.03;98129.83;1812930;79;21133;-59
2021/03/15 00:58:09;;;;;;;59.45;37.53;;;;;;;4.91;88.87;98132.42;1812834;78;21340;-60
2021/03/15 01:00:39;;;;;;;60.23;37.50;;;;;;;4.92;88.70;98122.63;1812841;79;21151;-57
2021/03/15 01:03:12;;;;;;;63.30;38.60;;;;;;;4.93;88.59;98113.27;1812828;78;21143;-63
2021/03/15 01:05:47;;;;;;;60.73;36.23;;;;;;;4.94;88.63;98117.14;1813050;78;21127;-60
2021/03/15 01:08:34;;;;;;;69.30;39.58;;;;;;;4.99;88.52;98114.25;1812990;78;21147;-58
2021/03/15 01:11:03;;;;;;;55.28;34.10;;;;;;;5.03;88.38;98110.47;1813096;78;21498;-56
2021/03/15 01:13:32;;;;;;;55.83;35.40;;;;;;;4.99;88.11;98104.03;1812797;79;21273;-60
2021/03/15 01:16:00;;;;;;;60.95;35.20;;;;;;;4.89;88.09;98102.55;1812818;78;21123;-57
2021/03/15 01:18:28;;;;;;;56.02;34.18;;;;;;;4.75;88.42;98096.73;1813040;79;21557;-58
2021/03/15 01:20:56;;;;;;;57.15;35.35;;;;;;;4.57;88.79;98090.83;1812999;79;21142;-62
2021/03/15 01:23:23;;;;;;;52.95;33.33;;;;;;;4.38;89.68;98078.95;1813204;78;21285;-61
2021/03/15 01:25:51;;;;;;;54.30;33.90;;;;;;;4.20;90.78;98081.94;1813108;78;21134;-57
2021/03/15 01:28:20;;;;;;;56.80;33.92;;;;;;;4.02;91.47;98076.01;1815738;78;21158;-60
2021/03/15 01:30:49;;;;;;;54.50;33.45;;;;;;;3.93;92.03;98081.78;1827335;77;21134;-57
2021/03/15 01:33:17;;;;;;;54.27;33.85;;;;;;;3.95;92.51;98090.34;1827206;78;21126;-58
2021/03/15 01:35:45;;;;;;;60.00;35.33;;;;;;;4.02;92.63;98092.60;1827345;78;21664;-58
2021/03/15 01:38:12;;;;;;;57.20;34.67;;;;;;;4.11;92.53;98094.95;1827284;78;21130;-61
2021/03/15 01:40:42;;;;;;;59.75;36.50;;;;;;;4.21;92.39;98095.17;1827389;77;21142;-61
2021/03/15 01:43:10;;;;;;;61.60;37.13;;;;;;;4.30;92.24;98103.02;1827354;78;21139;-61
2021/03/15 01:45:38;;;;;;;67.87;37.20;;;;;;;4.38;92.04;98106.62;1827346;77;21134;-55
2021/03/15 01:50:50;;;;;;;63.90;38.23;;;;;;;4.60;91.66;98101.95;1889908;76;22116;-60
2021/03/15 01:53:20;;;;;;;61.35;38.45;;;;;;;4.62;91.38;98110.09;1861136;77;21149;-62
2021/03/15 01:55:49;;;;;;;68.60;39.42;;;;;;;4.68;91.13;98108.96;1791823;80;21146;-59
2021/03/15 01:58:17;;;;;;;65.17;41.10;;;;;;;4.74;90.98;98110.77;1791683;80;21130;-58
2021/03/15 02:00:45;;;;;;;65.75;40.23;;;;;;;4.78;90.67;98109.98;1781939;79;21178;-61
2021/03/15 02:03:16;;;;;;;67.12;41.58;;;;;;;4.83;90.53;98108.38;1761401;80;21319;-62
2021/03/15 02:05:45;;;;;;;68.57;40.40;;;;;;;4.89;90.34;98108.94;1791549;80;21122;-59
2021/03/15 02:08:15;;;;;;;66.85;39.13;;;;;;;4.92;90.17;98111.13;1810333;79;21249;-62
2021/03/15 02:10:44;;;;;;;66.77;40.92;;;;;;;4.97;89.93;98113.78;1791424;80;21126;-62
2021/03/15 02:13:32;;;;;;;68.57;42.35;;;;;;;4.97;89.77;98111.22;1791425;80;21142;-57
2021/03/15 02:16:18;;;;;;;67.67;39.95;;;;;;;5.00;89.73;98119.80;1791690;80;21161;-59
2021/03/15 02:19:20;;;;;;;67.45;39.95;;;;;;;5.04;89.48;98109.63;1766165;80;21150;-54
2021/03/15 02:22:17;;;;;;;71.02;40.15;;;;;;;5.06;89.34;98111.80;1787547;80;21351;-63
2021/03/15 02:25:12;;;;;;;72.37;40.60;;;;;;;5.09;89.25;98115.69;1789641;80;21141;-59
2021/03/15 02:27:45;;;;;;;71.33;41.58;;;;;;;5.15;89.08;98108.16;1750547;80;21516;-62
2021/03/15 02:30:50;;;;;;;71.42;41.00;;;;;;;5.20;88.81;98109.09;1788037;80;21174;-61
2021/03/15 02:33:45;;;;;;;68.02;40.90;;;;;;;5.18;88.53;98111.61;1790319;80;21136;-60
2021/03/15 02:36:14;;;;;;;65.00;40.15;;;;;;;5.11;88.58;98106.36;1791660;80;21138;-60
2021/03/15 02:38:46;;;;;;;67.97;38.58;;;;;;;5.02;88.53;98103.22;1791536;80;21711;-63
2021/03/15 02:41:18;;;;;;;61.15;34.78;;;;;;;4.91;88.83;98098.30;1791861;80;21276;-57
2021/03/15 02:43:53;;;;;;;62.67;37.45;;;;;;;4.79;89.32;98097.25;1791416;80;21304;-59
2021/03/15 02:46:27;;;;;;;58.13;35.30;;;;;;;4.65;89.62;98097.80;1791635;80;21177;-59
2021/03/15 02:48:59;;;;;;;68.72;38.42;;;;;;;4.51;90.40;98084.75;1784407;80;21126;-61
2021/03/15 02:51:32;;;;;;;64.50;38.33;;;;;;;4.40;90.91;98097.30;1819551;79;21271;-57
2021/03/15 02:54:02;;;;;;;64.40;37.33;;;;;;;4.24;91.62;98090.13;1819177;79;21280;-60
2021/03/15 02:56:34;;;;;;;64.95;36.40;;;;;;;4.12;92.19;98090.70;1819295;79;21145;-56
2021/03/15 02:59:04;;;;;;;62.10;35.65;;;;;;;4.07;93.06;98076.97;1819448;79;21158;-59
2021/03/15 03:01:39;;;;;;;62.00;37.38;;;;;;;3.99;93.65;98079.35;1788779;79;21154;-60
2021/03/15 03:04:09;;;;;;;64.58;38.25;;;;;;;3.98;93.79;98081.89;1818526;78;21157;-60
2021/03/15 03:06:40;;;;;;;71.87;39.53;;;;;;;3.95;94.05;98075.03;1818842;79;21560;-60
2021/03/15 03:09:13;;;;;;;65.37;37.90;;;;;;;3.96;94.28;98089.50;1818836;79;21145;-62
2021/03/15 03:11:42;;;;;;;64.17;34.98;;;;;;;4.03;94.33;98085.41;1818780;79;21982;-63
2021/03/15 03:14:13;;;;;;;66.00;37.45;;;;;;;4.09;94.38;98085.11;1788138;79;21189;-56
2021/03/15 03:16:42;;;;;;;65.12;39.48;;;;;;;4.10;94.31;98076.64;1818788;79;21284;-62
2021/03/15 03:19:14;;;;;;;74.82;39.18;;;;;;;4.07;94.35;98093.17;1818680;79;21173;-61
2021/03/15 03:21:44;;;;;;;66.02;38.10;;;;;;;4.04;94.52;98082.88;1819054;79;21573;-61
2021/03/15 03:24:13;;;;;;;74.80;38.70;;;;;;;4.08;94.62;98077.02;1818520;78;21150;-60
2021/03/15 03:26:43;;;;;;;71.07;38.15;;;;;;;4.15;94.58;98080.58;1818542;79;21157;-58
2021/03/15 03:29:13;;;;;;;76.47;41.10;;;;;;;4.24;94.58;98079.91;1818655;79;21181;-56
2021/03/15 03:31:46;;;;;;;78.83;41.90;;;;;;;4.32;94.46;98088.59;1818876;79;21177;-57
2021/03/15 03:34:14;;;;;;;81.80;42.17;;;;;;;4.35;94.26;98093.76;1818493;79;21142;-61
2021/03/15 03:36:42;;;;;;;77.53;39.75;;;;;;;4.37;94.24;98094.66;1818495;79;21106;-63
2021/03/15 03:39:12;;;;;;;75.08;41.15;;;;;;;4.39;94.12;98094.28;1818739;79;21130;-58
2021/03/15 03:41:41;;;;;;;72.00;39.88;;;;;;;4.40;94.12;98088.36;1818689;79;21115;-61
2021/03/15 03:44:11;;;;;;;86.15;45.40;;;;;;;4.43;94.18;98093.53;1818497;78;21169;-63
2021/03/15 03:46:43;;;;;;;87.55;45.25;;;;;;;4.46;94.05;98097.42;1818477;79;21150;-62
2021/03/15 03:49:12;;;;;;;90.00;46.35;;;;;;;4.47;93.94;98101.69;1820411;77;21122;-59
2021/03/15 03:51:50;;;;;;;87.65;44.88;;;;;;;4.50;93.85;98106.89;1838375;77;21261;-64
2021/03/15 03:54:30;;;;;;;83.82;44.58;;;;;;;4.50;93.80;98109.44;1838170;77;21119;-58
2021/03/15 03:57:12;;;;;;;81.05;43.25;;;;;;;4.53;93.84;98113.75;1837601;78;21155;-58
2021/03/15 03:59:44;;;;;;;92.17;46.73;;;;;;;4.59;93.78;98118.13;1834214;78;21143;-59
2021/03/15 04:02:13;;;;;;;82.20;45.28;;;;;;;4.66;93.75;98122.53;1838399;77;21146;-60
2021/03/15 04:04:45;;;;;;;83.80;43.30;;;;;;;4.70;93.47;98121.75;1838595;78;21111;-59
2021/03/15 04:07:19;;;;;;;82.45;42.65;;;;;;;4.74;93.30;98126.11;1754426;82;21154;-59
2021/03/15 04:09:49;;;;;;;81.05;45.10;;;;;;;4.76;93.25;98125.30;1837985;78;21277;-61
2021/03/15 04:12:21;;;;;;;81.72;44.67;;;;;;;4.84;93.13;98119.06;1838135;77;21147;-59
2021/03/15 04:14:55;;;;;;;91.37;45.35;;;;;;;4.82;92.70;98123.28;1754300;81;21162;-61
2021/03/15 04:17:27;;;;;;;87.65;46.40;;;;;;;4.81;92.74;98127.07;1838415;77;21269;-58
2021/03/15 04:20:03;;;;;;;86.10;45.08;;;;;;;4.81;92.68;98131.80;1838102;78;21577;-58
2021/03/15 04:22:49;;;;;;;82.27;41.65;;;;;;;4.76;92.54;98134.25;1754509;82;21280;-59
2021/03/15 04:25:21;;;;;;;85.72;44.67;;;;;;;4.75;92.82;98136.77;1812328;78;21275;-60
2021/03/15 04:27:52;;;;;;;;;;;;;;;4.78;92.92;98139.38;1808302;79;21662;-58
2021/03/15 04:30:22;;;;;;;89.00;43.70;;;;;;;4.85;92.91;98142.51;1805340;79;20259;-61
2021/03/15 04:32:53;;;;;;;88.33;43.42;;;;;;;4.87;92.74;98144.69;1805568;79;21283;-60
2021/03/15 04:35:34;;;;;;;82.62;43.08;;;;;;;4.88;92.68;98146.40;1776028;79;21160;-59
2021/03/15 04:38:06;;;;;;;83.58;44.42;;;;;;;4.87;92.59;98148.52;1805531;79;21144;-59
2021/03/15 04:40:36;;;;;;;84.85;45.17;;;;;;;4.86;92.70;98149.37;1805339;79;21152;-59
2021/03/15 04:43:04;;;;;;;76.00;43.40;;;;;;;4.89;92.66;98154.53;1805563;79;21168;-61
2021/03/15 04:45:42;;;;;;;81.90;43.30;;;;;;;4.93;92.64;98160.14;1805345;79;21148;-57
2021/03/15 04:48:07;;;;;;;85.53;43.48;;;;;;;4.96;92.53;98156.39;1804616;79;21136;-59
2021/03/15 04:50:36;;;;;;;77.70;42.38;;;;;;;5.00;92.48;98158.16;1796693;79;21152;-58
2021/03/15 04:53:06;;;;;;;81.05;41.90;;;;;;;5.00;92.23;98156.87;1789308;80;21685;-59
2021/03/15 04:55:34;;;;;;;83.25;42.83;;;;;;;4.98;92.25;98157.25;1789052;80;21689;-57
2021/03/15 04:58:05;;;;;;;80.90;41.53;;;;;;;5.00;92.39;98163.27;1789122;79;21128;-57
2021/03/15 05:00:35;;;;;;;88.92;43.15;;;;;;;5.02;92.31;98158.63;1789448;79;21145;-55
2021/03/15 05:03:06;;;;;;;81.25;43.10;;;;;;;5.05;92.30;98161.23;1789242;80;21168;-61
2021/03/15 05:05:36;;;;;;;90.28;42.98;;;;;;;5.09;92.17;98161.33;1789374;80;21294;-62
2021/03/15 05:08:07;;;;;;;86.22;42.75;;;;;;;5.10;92.14;98162.19;1789382;79;21192;-60
2021/03/15 05:10:38;;;;;;;81.97;41.40;;;;;;;5.14;92.11;98167.78;1789657;80;21148;-61
2021/03/15 05:13:06;;;;;;;80.47;41.75;;;;;;;5.16;92.07;98169.54;1789250;80;21282;-58
2021/03/15 05:15:36;;;;;;;88.85;45.08;;;;;;;5.20;92.02;98164.09;1789573;79;21274;-61
2021/03/15 05:18:10;;;;;;;84.77;42.73;;;;;;;5.25;91.84;98167.59;1789599;80;21176;-62
2021/03/15 05:20:39;;;;;;;89.05;44.70;;;;;;;5.30;91.80;98165.13;1789618;79;21528;-62
2021/03/15 05:23:11;;;;;;;97.80;48.92;;;;;;;5.34;91.68;98163.06;1789137;80;21327;-63
2021/03/15 05:25:42;;;;;;;94.52;47.13;;;;;;;5.34;91.14;98166.50;1789422;79;21689;-62
2021/03/15 05:28:12;;;;;;;85.53;43.95;;;;;;;5.18;91.23;98164.47;1789103;80;21144;-60
2021/03/15 05:30:41;;;;;;;85.35;44.98;;;;;;;5.12;91.53;98177.16;1789238;80;21282;-61
2021/03/15 05:33:14;;;;;;;83.00;44.93;;;;;;;5.12;91.66;98173.31;1789343;80;21700;-61
2021/03/15 05:35:44;;;;;;;79.25;43.28;;;;;;;5.16;91.58;98177.21;1789266;80;21228;-58
2021/03/15 05:38:12;;;;;;;81.45;44.83;;;;;;;5.24;91.71;98179.95;1789113;80;21246;-63
2021/03/15 05:40:43;;;;;;;84.58;43.68;;;;;;;5.30;91.47;98174.09;1789307;79;21210;-62
2021/03/15 05:43:28;;;;;;;73.00;39.53;;;;;;;5.37;91.33;98180.63;1789366;79;21153;-59
2021/03/15 05:46:16;;;;;;;78.10;44.30;;;;;;;5.43;90.99;98180.73;1789194;79;21136;-61
2021/03/15 05:49:29;;;;;;;77.15;42.98;;;;;;;5.47;90.76;98181.67;1789022;79;21140;-61
2021/03/15 05:52:44;;;;;;;82.78;45.50;;;;;;;5.51;90.57;98189.83;1820813;79;21266;-59
2021/03/15 05:56:01;;;;;;;80.00;43.20;;;;;;;5.50;90.68;98194.94;1786159;79;21281;-63
2021/03/15 05:59:07;;;;;;;88.92;44.93;;;;;;;5.61;90.64;98199.39;1821456;79;21124;-60
2021/03/15 06:02:26;;;;;;;71.97;40.48;;;;;;;5.71;90.43;98207.25;1821498;79;21167;-58
2021/03/15 06:05:25;;;;;;;74.67;39.38;;;;;;;5.81;89.92;98215.12;1821337;79;21297;-62
2021/03/15 06:11:21;;;;;;;78.30;41.37;;;;;;;5.88;89.18;98204.16;1866335;75;23252;-62
2021/03/15 06:13:50;;;;;;;77.20;40.63;;;;;;;5.85;89.25;98207.06;1863770;77;21295;-61
2021/03/15 06:16:19;;;;;;;71.70;38.15;;;;;;;5.95;89.01;98209.40;1861183;77;21176;-62
2021/03/15 06:18:48;;;;;;;75.67;39.92;;;;;;;6.04;88.70;98209.14;1835438;77;21219;-59
2021/03/15 06:21:16;;;;;;;69.72;38.88;;;;;;;6.11;88.41;98207.55;1855608;77;21279;-62
2021/03/15 06:23:45;;;;;;;76.90;41.08;;;;;;;6.23;88.22;98205.20;1786583;80;21138;-61
2021/03/15 06:26:13;;;;;;;77.42;40.33;;;;;;;6.38;87.68;98205.83;1779098;79;21152;-62
2021/03/15 06:28:41;;;;;;;74.95;39.83;;;;;;;6.46;87.32;98205.95;1795054;79;21164;-59
2021/03/15 06:31:10;;;;;;;74.37;40.78;;;;;;;6.56;86.72;98200.11;1763015;79;21156;-62
2021/03/15 06:33:40;;;;;;;81.37;42.60;;;;;;;6.47;86.32;98197.44;1741246;81;21180;-64
2021/03/15 06:36:11;;;;;;;83.20;44.03;;;;;;;6.47;86.58;98202.56;1753450;79;21179;-59
2021/03/15 06:38:41;;;;;;;;;;;;;;;6.63;86.39;98203.64;1755111;81;21154;-60
2021/03/15 06:41:09;;;;;;;81.55;43.80;;;;;;;6.83;86.26;98199.65;1771876;79;20410;-63
2021/03/15 06:43:37;;;;;;;71.40;40.55;;;;;;;6.99;85.42;98203.70;1768038;80;21602;-61
2021/03/15 06:46:05;;;;;;;76.47;41.02;;;;;;;7.13;84.94;98200.47;1775378;80;21125;-62
2021/03/15 06:48:33;;;;;;;71.02;40.25;;;;;;;7.26;84.48;98196.34;1776062;80;21300;-66
2021/03/15 06:51:02;;;;;;;71.87;39.65;;;;;;;7.41;83.84;98199.52;1766137;80;21149;-63
2021/03/15 06:53:41;;;;;;;76.15;41.30;;;;;;;7.48;83.09;98194.00;1774145;80;21134;-70
2021/03/15 06:56:20;;;;;;;70.42;39.13;;;;;;;7.55;82.77;98197.08;1794419;79;21157;-62
2021/03/15 06:58:54;;;;;;;69.15;38.83;;;;;;;7.67;82.38;98195.07;1756732;79;21603;-59
2021/03/15 07:01:28;;;;;;;73.62;40.43;;;;;;;7.75;81.47;98196.86;1766072;79;21259;-64
2021/03/15 07:04:11;;;;;;;68.25;37.35;;;;;;;7.76;81.00;98200.28;1732763;80;21315;-66
2021/03/15 07:06:45;;;;;;;67.00;37.85;;;;;;;7.73;80.59;98204.11;1798022;79;21184;-65
2021/03/15 07:09:16;;;;;;;71.15;39.08;;;;;;;7.48;80.40;98201.31;1799251;79;21223;-66
2021/03/15 07:11:44;;;;;;;70.32;38.28;;;;;;;7.15;80.89;98198.79;1768286;81;21259;-68
2021/03/15 07:14:24;;;;;;;72.70;40.58;;;;;;;6.93;81.65;98198.07;1733804;80;21576;-61
2021/03/15 07:17:01;;;;;;;72.90;40.73;;;;;;;6.73;82.23;98195.23;1736469;80;21162;-65
2021/03/15 07:19:30;;;;;;;77.05;42.78;;;;;;;6.61;83.07;98193.35;1785113;80;21248;-64
2021/03/15 07:21:58;;;;;;;71.90;41.28;;;;;;;6.60;83.38;98191.64;1731884;81;21177;-67
2021/03/15 07:24:31;;;;;;;76.20;42.53;;;;;;;6.64;83.66;98192.53;1741827;81;21161;-65
2021/03/15 07:26:58;;;;;;;79.87;44.27;;;;;;;6.56;83.80;98189.00;1752234;81;21206;-60
2021/03/15 07:29:29;;;;;;;70.83;40.80;;;;;;;6.56;84.37;98186.02;1766860;81;21654;-63
2021/03/15 07:31:56;;;;;;;71.20;41.70;;;;;;;6.79;84.06;98181.63;1751240;81;21319;-63
2021/03/15 07:34:25;;;;;;;77.70;44.93;;;;;;;7.05;83.76;98182.84;1762640;81;21568;-66
2021/03/15 07:36:56;;;;;;;72.75;41.77;;;;;;;7.26;82.92;98186.50;1777629;81;21159;-63
2021/03/15 07:39:29;;;;;;;78.10;45.33;;;;;;;7.35;82.45;98184.91;1774551;80;21204;-63
2021/03/15 07:42:01;;;;;;;86.92;48.73;;;;;;;7.43;81.54;98184.11;1769143;81;21819;-65
2021/03/15 07:44:33;;;;;;;90.70;50.17;;;;;;;7.26;81.59;98182.66;1777658;80;21155;-65
2021/03/15 07:47:04;;;;;;;88.35;49.88;;;;;;;7.14;81.76;98192.34;1774876;81;21335;-63
2021/03/15 07:49:38;;;;;;;79.80;46.63;;;;;;;6.98;82.29;98191.30;1773215;81;21185;-63
2021/03/15 07:52:10;;;;;;;82.27;47.53;;;;;;;6.87;82.56;98189.00;1762693;80;21303;-66
2021/03/15 07:54:41;;;;;;;83.90;47.60;;;;;;;6.71;83.18;98197.77;1765756;81;21338;-66
2021/03/15 07:57:19;;;;;;;81.05;46.77;;;;;;;6.63;83.68;98194.66;1761917;80;21310;-67
2021/03/15 07:59:57;;;;;;;85.60;49.48;;;;;;;6.69;84.20;98193.45;1765513;81;21181;-68
2021/03/15 08:02:34;;;;;;;84.58;48.68;;;;;;;6.75;83.90;98188.44;1756066;81;21197;-66
2021/03/15 08:05:02;;;;;;;88.37;51.20;;;;;;;6.74;83.82;98187.58;1736915;82;21128;-69
2021/03/15 08:07:31;;;;;;;94.58;53.78;;;;;;;6.65;84.18;98191.28;1756794;81;21176;-64
2021/03/15 08:10:00;;;;;;;99.00;54.50;;;;;;;6.63;84.43;98193.38;1752495;81;21175;-63
2021/03/15 08:12:36;;;;;;;101.87;57.33;;;;;;;6.64;84.46;98192.53;1758057;81;21631;-69
2021/03/15 08:15:10;;;;;;;102.67;56.85;;;;;;;6.64;84.57;98189.58;1748679;81;21160;-69
2021/03/15 08:17:44;;;;;;;97.22;53.90;;;;;;;6.65;84.75;98186.58;1762055;81;21209;-62
2021/03/15 08:20:16;;;;;;;105.63;58.38;;;;;;;6.67;84.75;98183.20;1764064;81;21188;-65
2021/03/15 08:22:52;;;;;;;98.37;56.05;;;;;;;6.72;84.81;98181.98;1759934;81;21605;-61
2021/03/15 08:25:21;;;;;;;108.67;57.40;;;;;;;6.89;84.93;98180.91;1764518;81;21192;-67
2021/03/15 08:27:51;;;;;;;100.20;54.85;;;;;;;7.17;84.18;98183.00;1747096;81;21203;-62
2021/03/15 08:30:26;;;;;;;100.22;55.92;;;;;;;7.33;83.25;98178.04;1759069;80;21675;-66
2021/03/15 08:32:54;;;;;;;101.87;56.25;;;;;;;7.37;82.93;98179.34;1792202;80;21592;-63
2021/03/15 08:35:23;;;;;;;106.65;56.77;;;;;;;7.47;82.74;98189.30;1765241;80;21295;-60
2021/03/15 08:37:58;;;;;;;102.50;55.35;;;;;;;7.45;82.29;98201.25;1789350;80;21165;-72
2021/03/15 08:40:44;;;;;;;117.08;59.95;;;;;;;7.32;82.40;98194.27;1789449;80;21589;-69
2021/03/15 08:43:23;;;;;;;100.72;55.23;;;;;;;7.05;83.06;98202.08;1757221;80;21157;-61
2021/03/15 08:46:08;;;;;;;104.58;55.20;;;;;;;6.94;83.56;98191.66;1782374;80;21323;-71
2021/03/15 08:48:48;;;;;;;110.83;60.03;;;;;;;6.91;83.91;98195.91;1794628;80;21165;-68
2021/03/15 08:51:34;;;;;;;100.20;53.33;;;;;;;6.86;84.28;98197.55;1769873;80;21170;-62
2021/03/15 08:54:07;;;;;;;111.35;58.73;;;;;;;6.84;84.50;98197.94;1788168;80;21169;-64
2021/03/15 08:56:44;;;;;;;112.62;61.08;;;;;;;6.86;84.50;98200.11;1760775;80;21185;-66
2021/03/15 08:59:14;;;;;;;128.27;65.87;;;;;;;6.83;84.52;98202.21;1751347;81;21152;-68
2021/03/15 09:01:49;;;;;;;117.55;63.85;;;;;;;6.71;84.75;98206.73;1690486;83;21169;-69
2021/03/15 09:04:45;;;;;;;115.10;61.13;;;;;;;6.69;85.09;98203.32;1737080;81;21193;-61
2021/03/15 09:07:39;;;;;;;118.55;62.75;;;;;;;6.83;84.97;98200.08;1733416;82;21260;-70
2021/03/15 09:10:34;;;;;;;117.30;59.05;;;;;;;6.77;84.74;98197.41;1751023;81;21300;-75
2021/03/15 09:13:23;;;;;;;117.20;62.08;;;;;;;6.66;85.20;98203.25;1725974;81;21130;-67
2021/03/15 09:15:56;;;;;;;124.38;60.55;;;;;;;6.70;85.40;98197.34;1727067;81;21588;-77
2021/03/15 09:18:44;;;;;;;129.35;62.27;;;;;;;6.79;85.18;98197.02;1738816;81;21449;-65
2021/03/15 09:21:29;;;;;;;118.22;59.93;;;;;;;6.79;85.11;98197.02;1736387;81;21217;-72
2021/03/15 09:24:01;;;;;;;112.28;57.08;;;;;;;6.69;85.32;98196.91;1732924;81;21165;-72
2021/03/15 09:26:33;;;;;;;112.80;57.75;;;;;;;6.71;85.61;98190.50;1751414;80;21154;-66
2021/03/15 09:29:05;;;;;;;119.55;62.88;;;;;;;6.86;85.50;98189.85;1727694;82;21719;-64
2021/03/15 09:31:32;;;;;;;118.17;59.67;;;;;;;6.89;85.19;98188.60;1725911;82;21153;-65
2021/03/15 09:34:08;;;;;;;121.57;60.52;;;;;;;6.99;85.19;98192.16;1763686;80;21759;-68
2021/03/15 09:36:36;;;;;;;127.00;63.50;;;;;;;7.07;84.79;98188.86;1727127;82;21307;-64
2021/03/15 09:39:06;;;;;;;128.30;64.65;;;;;;;7.11;84.45;98193.16;1761613;80;21284;-69
2021/03/15 09:41:35;;;;;;;119.50;59.55;;;;;;;7.19;84.15;98194.54;1725523;81;21331;-71
2021/03/15 09:44:05;;;;;;;119.77;59.15;;;;;;;7.10;83.85;98196.59;1732845;81;21227;-78
2021/03/15 09:46:35;;;;;;;120.47;62.85;;;;;;;7.00;84.23;98194.75;1750215;81;21307;-71
2021/03/15 09:49:03;;;;;;;129.15;65.67;;;;;;;6.89;84.55;98196.30;1761367;81;21299;-69
2021/03/15 09:51:31;;;;;;;135.03;65.57;;;;;;;6.87;84.84;98194.13;1775986;80;21226;-69
2021/03/15 09:54:11;;;;;;;136.35;67.62;;;;;;;6.91;85.13;98194.63;1846443;76;22269;-65
2021/03/15 09:56:40;;;;;;;140.73;69.95;;;;;;;7.00;85.26;98192.61;1748512;81;21289;-67
2021/03/15 09:59:12;;;;;;;142.90;68.42;;;;;;;7.24;84.92;98189.47;1766030;80;21150;-71
2021/03/15 10:01:46;;;;;;;140.90;67.55;;;;;;;7.36;83.77;98190.47;1770783;80;21677;-65
2021/03/15 10:04:39;;;;;;;149.62;70.50;;;;;;;7.27;83.70;98193.34;1755229;80;21180;-64
2021/03/15 10:07:26;;;;;;;149.53;69.72;;;;;;;7.18;84.13;98197.96;1751146;81;21582;-66
2021/03/15 10:10:20;;;;;;;151.02;68.78;;;;;;;7.16;84.56;98195.37;1751640;80;21298;-66
2021/03/15 10:13:08;;;;;;;155.07;70.17;;;;;;;7.05;84.37;98199.52;1755606;80;21198;-67
2021/03/15 10:15:39;;;;;;;149.53;68.80;;;;;;;6.89;85.07;98200.14;1774558;80;21225;-66
2021/03/15 10:18:18;;;;;;;133.50;64.90;;;;;;;6.82;85.31;98195.77;1758104;81;21117;-67
2021/03/15 10:20:49;;;;;;;145.50;65.55;;;;;;;6.82;85.64;98200.90;1759077;81;21224;-69
2021/03/15 10:23:22;;;;;;;145.65;63.42;;;;;;;6.91;86.02;98201.89;1749410;81;21192;-64
2021/03/15 10:26:05;;;;;;;124.45;58.38;;;;;;;7.03;85.66;98205.47;1758017;80;21167;-70
2021/03/15 10:28:53;;;;;;;140.75;63.10;;;;;;;6.90;85.63;98207.02;1748112;81;21145;-66
2021/03/15 10:31:42;;;;;;;136.80;61.50;;;;;;;6.76;86.47;98196.98;1836187;76;22190;-69
2021/03/15 10:34:11;;;;;;;124.85;59.03;;;;;;;6.64;86.75;98198.55;1795824;78;21517;-68
2021/03/15 10:36:44;;;;;;;119.02;56.88;;;;;;;6.61;87.31;98194.63;1814503;77;21587;-71
2021/03/15 10:39:22;;;;;;;118.95;54.63;;;;;;;6.57;87.46;98198.02;1812009;78;21571;-66
2021/03/15 10:41:52;;;;;;;114.03;55.17;;;;;;;6.40;88.24;98191.77;1816087;78;21276;-66
2021/03/15 10:44:24;;;;;;;110.25;54.90;;;;;;;6.35;88.46;98189.56;1822245;77;21186;-66
2021/03/15 10:46:56;;;;;;;114.52;53.10;;;;;;;6.28;88.70;98190.76;1817502;78;21141;-70
2021/03/15 10:49:28;;;;;;;124.05;58.25;;;;;;;6.19;89.18;98194.45;1759468;80;21095;-63
2021/03/15 10:51:59;;;;;;;122.25;54.93;;;;;;;6.06;90.07;98188.69;1768406;80;21123;-66
2021/03/15 10:54:32;;;;;;;116.33;54.85;;;;;;;6.03;90.08;98183.48;1755164;81;21159;-67
2021/03/15 10:57:14;;;;;;;;;;;;;;;6.09;90.44;98181.91;1747331;82;21150;-65
2021/03/15 10:59:43;;;;;;;;;;;;;;;6.22;90.22;98176.98;1748467;81;20145;-65
2021/03/15 11:02:28;;;;;;;124.95;57.03;;;;;;;6.23;89.87;98175.73;1762676;81;20189;-65
2021/03/15 11:04:59;;;;;;;114.20;54.05;;;;;;;6.13;90.37;98176.43;1755150;81;21139;-66
2021/03/15 11:07:39;;;;;;;118.77;57.43;;;;;;;6.21;90.42;98165.88;1759227;81;21169;-65
2021/03/15 11:10:17;;;;;;;118.42;55.92;;;;;;;6.33;90.38;98161.34;1760086;81;21138;-63
2021/03/15 11:12:57;;;;;;;127.92;58.80;;;;;;;6.47;90.21;98157.28;1815916;77;22206;-65
2021/03/15 11:15:38;;;;;;;118.55;57.05;;;;;;;6.45;90.00;98158.10;1765390;80;21153;-65
2021/03/15 11:18:24;;;;;;;125.85;58.65;;;;;;;6.43;89.88;98165.75;1775773;80;21165;-64
2021/03/15 11:21:00;;;;;;;125.25;57.38;;;;;;;6.39;90.29;98160.59;1771652;79;21134;-61
2021/03/15 11:23:45;;;;;;;118.47;51.88;;;;;;;6.42;90.23;98155.50;1747614;81;21190;-61
2021/03/15 11:26:18;;;;;;;120.30;55.38;;;;;;;6.43;89.99;98143.12;1745804;81;21296;-62
2021/03/15 11:28:52;;;;;;;132.60;59.42;;;;;;;6.39;89.95;98148.63;1685723;83;21290;-60
2021/03/15 11:31:27;;;;;;;132.40;55.28;;;;;;;6.21;90.42;98148.37;1708674;81;21189;-62
2021/03/15 11:34:00;;;;;;;116.33;51.13;;;;;;;6.23;90.88;98147.55;1733577;81;21158;-62
2021/03/15 11:36:43;;;;;;;109.97;50.03;;;;;;;6.24;90.77;98145.84;1734285;81;21192;-61
2021/03/15 11:39:13;;;;;;;115.80;50.65;;;;;;;6.22;90.86;98138.12;1735577;81;21225;-59
2021/03/15 11:41:46;;;;;;;100.78;45.45;;;;;;;6.30;90.95;98145.92;1739638;81;21166;-61
2021/03/15 11:44:15;;;;;;;105.12;49.45;;;;;;;6.39;90.82;98138.81;1728132;83;21130;-60
2021/03/15 11:46:44;;;;;;;90.55;45.85;;;;;;;6.42;90.61;98137.56;1730950;82;21233;-61
2021/03/15 11:49:14;;;;;;;95.32;46.08;;;;;;;6.47;90.67;98144.89;1720886;82;21664;-61
2021/03/15 11:51:56;;;;;;;83.62;40.95;;;;;;;6.38;90.23;98153.30;1719355;82;21229;-61
2021/03/15 11:54:44;;;;;;;81.60;40.50;;;;;;;6.22;90.75;98156.48;1720461;83;21588;-61
2021/03/15 11:57:14;;;;;;;68.72;38.75;;;;;;;5.97;91.35;98159.08;1720535;82;21229;-61
2021/03/15 11:59:42;;;;;;;76.50;39.70;;;;;;;5.83;91.92;98158.83;1722572;82;21260;-61
2021/03/15 12:02:12;;;;;;;82.42;41.00;;;;;;;5.70;92.46;98150.08;1720894;82;21276;-62